Архив погоды в Опарино

Метеограмма Опарино
Понедельник, 24 Сентября
Время местн. Темп Ветер Видим Явления Облачность нижн/средн/верх Атм. давл. Влжн Точка росы ВНГО R Сост. почвы Tg s
Напр Скр Прв ур.ст ур.м изм
06:00 +11.4° З,С-З 2 3 50 км - облачно 739 755 +0.2 87% +9.4° 1 км - Сухая (без трещин) - -
03:00 +11.6° штиль 0 0 50 км - переменная облачность 738 755 +0.1 97% +11.2° 1 км - - - -
00:00 +15.3° Ю 2 4 50 км - ясно 738 754 -0.3 81% +12° более 2.5 км - - - -
Воскресенье, 23 Сентября
Время местн. Темп Ветер Видим Явления Облачность нижн/средн/верх Атм. давл. Влжн Точка росы ВНГО R Сост. почвы Tg s
Напр Скр Прв ур.ст ур.м изм
21:00 +17.4° Ю 4 7 50 км - ясно 739 754 -0.7 66% +10.9° более 2.5 км - - - -
18:00 +19.8° Ю 3 7 50 км - переменная облачность 739 755 -1.1 55% +10.6° - - - - -
15:00 +22.2° Ю 5 7 50 км - незначительная облачность 741 756 -1.1 48% +10.6° более 2.5 км - - - -
12:00 +21.7° Ю 6 10 50 км - переменная облачность 742 757 -1 55% +12.2° более 2.5 км - - - -
09:00 +16.2° Ю 2 3 50 км - незначительная облачность 743 759 -0.8 83% +13.3° более 2.5 км - - - -
06:00 +11.8° Ю 1 2 50 км - ясно 743 759 -0.8 96% +11.2° более 2.5 км - Влажная (без луж) - -
03:00 +12.8° Ю 1 2 50 км - ясно 744 760 -0.5 96% +12.1° более 2.5 км - - - -
00:00 +12.7° Ю 1 1 50 км - ясно 745 761 -0.5 96% +12° более 2.5 км - - - -
Суббота, 22 Сентября
Время местн. Темп Ветер Видим Явления Облачность нижн/средн/верх Атм. давл. Влжн Точка росы ВНГО R Сост. почвы Tg s
Напр Скр Прв ур.ст ур.м изм
21:00 +13.8° Ю 1 1 50 км - ясно 745 761 -0.5 93% +12.7° более 2.5 км - - - -
18:00 +18.3° Ю 1 2 50 км - переменная облачность 746 761 -0.4 77% +14.1° более 2.5 км - - - -
15:00 +21.7° Ю,Ю-З 2 4 50 км - переменная облачность 746 762 -0.2 60% +13.6° 1.5 км - - - -
12:00 +20.4° З 2 3 50 км - облачно с прояснениями 746 762 0 61% +12.6° 1.5 км - - - -
06:00 +9.6° Ю 1 1 0.5 км туман, небо видно переменная облачность 746 762 +0.5 100% +9.6° более 2.5 км - Влажная (без луж) - -
03:00 +12.6° З 1 1 50 км небо без изменений {ливневые осадки} ясно 745 761 0 99% +12.4° более 2.5 км - - - -
00:00 +13° З 1 1 50 км - преимущественно облачно 745 761 +0.1 100% +13° 1 км - - - -
Пятница, 21 Сентября
Время местн. Темп Ветер Видим Явления Облачность нижн/средн/верх Атм. давл. Влжн Точка росы ВНГО R Сост. почвы Tg s
Напр Скр Прв ур.ст ур.м изм
21:00 +13.9° З,Ю-З 1 1 50 км - облачно с прояснениями 745 761 +0.5 97% +13.5° 1 км - - - -
18:00 +15° Ю-З 2 3 50 км - облачно с прояснениями 745 761 +0.8 93% +13.9° 600 м - - - -
15:00 +16.2° Ю,Ю-З 3 6 50 км - преимущественно облачно 744 760 +0.1 82% +13.1° 600 м - - - -
12:00 +13.2° Ю 2 4 50 км - облачно 744 760 +0.1 88% +11.3° 600 м - - - -
09:00 +9.8° Ю-З 2 4 50 км - облачно 744 760 +0.1 95% +9° 600 м - - - -
06:00 +7.3° Ю 1 1 50 км - облачно 744 760 0 97% +6.8° 600 м - Влажная (без луж) - -
03:00 +5.7° штиль 0 0 50 км - переменная облачность 744 760 +0.2 97% +5.2° 1 км - - - -
00:00 +6.7° С,С-В 1 1 50 км - облачно с прояснениями 744 760 +0.8 95% +6° 1 км - - - -